Terminal Aerodrome Forecast
Issued by NWS

Home | Current Version | Previous Version | Graphics & Text | Print | Product List | Glossary On
Versions: 1 2 3 4 5 6 7 8 9 10 11 12 13 14 15 16 17 18 19 20 21
240
FTUS43 KGRB 271124
TAFAUW
TAF
KAUW 271124Z 2712/2812 28011KT P6SM OVC035
      TEMPO 2712/2714 -SHRA BKN025
     FM271400 29012G18KT P6SM OVC023
      TEMPO 2714/2716 -SHRA
     FM271600 29012G19KT P6SM -SHRA OVC017
     FM280000 30007KT P6SM -SHRA OVC013
     FM280300 32007KT P6SM -SHRA OVC007
     FM280900 35007KT P6SM OVC005=

USA.gov is the U.S. government's official web portal to all federal, state and local government web resources and services.